Meteo Giornale » Osservazioni meteo Stati Uniti (USA) » Ellensburg Bowers Fld
ore: 11:53 - Osservazioni Meteo Ellensburg Bowers Fld
Lat. 47° 2' N Lon. 120° 31' W Alt. 536 metri s.l.m.
21 °C
Sereno
Temp. 24 Ore
9 °C
27 °C
Nord
5.5 Km/h
Dew point 9 °C
Umidità 46 %
Visibilità 11 Km
Il sole sorge alle ore 06:21
Il sole tramonta alle ore 19:41
| Data e Ora | Cielo e Fenomeni | T °C | DP °C | Um. % | Pres. hPa | Vis. km | Vento km/h | |
|---|---|---|---|---|---|---|---|---|
| Oggi h: 11:53 | Sereno | 21 | 9 | 46 | 1007 | 11 | N 5.5 | |
| Oggi h: 10:53 | Sereno | 19 | 9 | 52 | 1007 | 13 | E 7.4 | |
| Oggi h: 09:53 | Sereno | 17 | 9 | 59 | 1007 | 10 | E 7.4 | |
| Oggi h: 08:53 | Sereno | 14 | 7 | 62 | 1008 | 10 | N 0 | |
| Oggi h: 07:53 | Sereno | 12 | 7 | 71 | 1008 | 10 | E/NE 11.1 | |
| Oggi h: 06:53 | Sereno | 9 | 5 | 75 | 1008 | 10 | N 0 | |
| Oggi h: 05:53 | Sereno | 10 | 5 | 71 | 1008 | 10 | N 5.5 | |
| Oggi h: 04:53 | Sereno | 10 | 5 | 71 | 1008 | 10 | N/NE 7.4 | |
| Oggi h: 03:53 | Sereno | 11 | 6 | 71 | 1008 | 10 | N 5.5 | |
| Oggi h: 02:53 | Sereno | 11 | 6 | 71 | 1008 | 10 | E/NE 11.1 | |
| Oggi h: 01:53 | Sereno | 13 | 6 | 62 | 1008 | 10 | N 0 | |
| Oggi h: 00:53 | Sereno | 13 | 6 | 62 | 1009 | 10 | E/NE 7.4 | |
| Ieri h: 23:53 | Sereno | 13 | 6 | 62 | 1009 | 10 | N 5.5 | |
| Ieri h: 22:53 | Sereno | 13 | 6 | 62 | 1009 | 10 | N 0 | |
| Ieri h: 21:53 | Sereno | 15 | 7 | 58 | 1009 | 10 | N 9.3 | |
| Ieri h: 20:53 | Sereno | 16 | 6 | 51 | 1009 | 10 | N 5.5 | |
| Ieri h: 19:53 | Sereno | 19 | 7 | 45 | 1009 | 10 | N 5.5 | |
| Ieri h: 18:53 | Sereno | 24 | 6 | 31 | 1009 | 10 | SE 9.3 | |
| Ieri h: 17:53 | Sereno | 26 | 4 | 24 | 1009 | 10 | SE 11.1 | |
| Ieri h: 16:53 | Sereno | 27 | 4 | 22 | 1010 | 10 | SE 20.3 | |
| Ieri h: 15:53 | Sereno | 26 | 5 | 25 | 1011 | 10 | S 16.7 | |
| Ieri h: 14:53 | Sereno | 26 | 4 | 24 | 1011 | 10 | SE 13 | |
| Ieri h: 13:53 | Sereno | 24 | 4 | 27 | 1012 | 10 | N 0 | |
| Ieri h: 12:53 | Sereno | 23 | 6 | 33 | 1013 | 10 | S 18.5 | |



